Terminal Aerodrome Forecast
Issued by NWS Binghamton, NY

Home | Current Version | Previous Version | Text Only | Print | Product List | Glossary On
Versions: 1 2 3 4 5 6 7 8 9 10 11 12 13 14 15 16 17 18 19 20 21 22 23 24 25 26 27 28 29 30 31 32
000
FTUS41 KBGM 061742
TAFBGM
TAF
KBGM 061742Z 0618/0718 02010KT 4SM -SHRA BR SCT020 OVC050
     FM061900 02008KT 3SM -SHRA BR OVC025
      TEMPO 0619/0621 2SM -SHRA BR OVC012
     FM062200 04007KT 3SM -SHRA BR OVC012
      TEMPO 0622/0702 2SM -SHRA BR OVC008
     FM070500 09006KT P6SM OVC012
     FM071000 10005KT 3SM BR OVC007
     FM071400 16005KT P6SM OVC015=

USA.gov is the U.S. government's official web portal to all federal, state and local government web resources and services.